createdAt,value
2019-04-29T00:01:00.293Z,2.80
2019-04-29T00:03:28.868Z,3.20
2019-04-29T00:05:57.803Z,2.50
2019-04-29T00:08:26.457Z,2.67
2019-04-29T00:10:55.002Z,2.83
2019-04-29T00:13:23.623Z,2.70
2019-04-29T00:15:54.163Z,2.80
2019-04-29T00:18:24.453Z,2.90
2019-04-29T00:20:53.108Z,3.67
2019-04-29T00:23:21.742Z,6.33
2019-04-29T00:25:50.657Z,5.20
2019-04-29T00:28:19.382Z,3.50
2019-04-29T00:30:48.227Z,4.00
2019-04-29T00:33:17.158Z,3.57
2019-04-29T00:35:45.851Z,3.53
2019-04-29T00:38:32.786Z,3.27
2019-04-29T00:41:19.154Z,4.23
2019-04-29T00:43:49.358Z,4.30
2019-04-29T00:46:17.939Z,4.40
2019-04-29T00:48:46.521Z,3.90
2019-04-29T00:51:15.150Z,4.00
2019-04-29T00:53:44.338Z,4.43
2019-04-29T00:56:12.952Z,3.63
2019-04-29T00:58:41.960Z,4.00
2019-04-29T01:01:13.363Z,3.77
2019-04-29T01:03:41.979Z,4.20
2019-04-29T01:06:10.655Z,4.33
2019-04-29T01:08:39.394Z,4.23
2019-04-29T01:11:08.033Z,4.60
2019-04-29T01:13:36.683Z,3.93
2019-04-29T01:16:05.519Z,4.03
2019-04-29T01:18:34.153Z,4.10
2019-04-29T01:21:02.717Z,4.33
2019-04-29T01:23:31.338Z,4.73
2019-04-29T01:26:01.635Z,5.67
2019-04-29T01:28:31.919Z,4.23
2019-04-29T01:31:05.981Z,4.87
2019-04-29T01:33:34.920Z,5.63
2019-04-29T01:36:16.880Z,6.20
2019-04-29T01:38:48.765Z,5.97
2019-04-29T01:41:19.273Z,4.40
2019-04-29T01:44:01.798Z,5.83
2019-04-29T01:46:30.703Z,4.60
2019-04-29T01:48:59.600Z,4.03
2019-04-29T01:51:28.580Z,4.17
2019-04-29T01:53:57.145Z,4.60
2019-04-29T01:56:25.774Z,4.83
2019-04-29T01:58:54.329Z,4.73
2019-04-29T02:01:22.820Z,12.43
2019-04-29T02:03:51.378Z,11.23
2019-04-29T02:06:20.013Z,8.70
2019-04-29T02:08:49.555Z,5.40
2019-04-29T02:11:18.088Z,9.13
2019-04-29T02:13:46.962Z,5.43
2019-04-29T02:16:15.508Z,7.03
2019-04-29T02:18:43.981Z,6.00
2019-04-29T02:21:12.573Z,5.50
2019-04-29T02:23:51.429Z,4.90
2019-04-29T02:26:19.995Z,6.00
2019-04-29T02:28:48.568Z,4.93
2019-04-29T02:31:34.851Z,5.13
2019-04-29T02:34:03.461Z,5.47
2019-04-29T02:36:32.057Z,4.90
2019-04-29T02:39:18.910Z,6.00
2019-04-29T02:42:05.633Z,6.73
2019-04-29T02:44:34.395Z,8.07
2019-04-29T02:47:02.981Z,6.70
2019-04-29T02:49:31.539Z,4.90
2019-04-29T02:52:00.087Z,5.87
2019-04-29T02:54:29.859Z,5.33
2019-04-29T02:57:12.339Z,5.03
2019-04-29T02:59:45.081Z,5.03
2019-04-29T03:02:21.005Z,6.73
2019-04-29T03:04:51.339Z,5.50
2019-04-29T03:07:20.868Z,5.40
2019-04-29T03:09:49.455Z,6.00
2019-04-29T03:12:18.057Z,5.00
2019-04-29T03:14:46.582Z,4.77
2019-04-29T03:17:18.703Z,4.63
2019-04-29T03:20:03.160Z,5.13
2019-04-29T03:22:32.064Z,4.27
2019-04-29T03:25:00.682Z,5.63
2019-04-29T03:27:29.317Z,7.90
2019-04-29T03:29:57.891Z,5.57
2019-04-29T03:32:26.431Z,5.23
2019-04-29T03:34:55.017Z,5.60
2019-04-29T03:37:23.571Z,6.07
2019-04-29T03:39:52.423Z,5.13
2019-04-29T03:42:20.985Z,5.97
2019-04-29T03:44:49.611Z,5.80
2019-04-29T03:47:18.980Z,5.67
2019-04-29T03:49:47.928Z,6.72
2019-04-29T03:52:16.472Z,5.67
2019-04-29T03:54:45.063Z,6.30
2019-04-29T03:57:15.201Z,6.00
2019-04-29T03:59:43.787Z,6.70
2019-04-29T04:02:30.388Z,6.37
2019-04-29T04:05:06.818Z,6.60
2019-04-29T04:07:49.113Z,7.23
2019-04-29T04:10:17.752Z,7.33
2019-04-29T04:12:46.299Z,6.97
2019-04-29T04:15:15.202Z,7.17
2019-04-29T04:17:45.379Z,7.17
2019-04-29T04:20:14.725Z,7.23
2019-04-29T04:22:47.417Z,8.27
2019-04-29T04:25:17.290Z,7.93
2019-04-29T04:27:47.196Z,8.93
2019-04-29T04:30:17.056Z,7.80
2019-04-29T04:32:46.011Z,9.40
2019-04-29T04:35:15.427Z,9.03
2019-04-29T04:37:43.987Z,8.43
2019-04-29T04:40:14.817Z,9.90
2019-04-29T04:42:43.496Z,8.83
2019-04-29T04:45:13.685Z,9.47
2019-04-29T04:47:42.261Z,10.37
2019-04-29T04:50:11.266Z,9.23
2019-04-29T04:52:39.807Z,9.63
2019-04-29T04:55:08.737Z,9.43
2019-04-29T04:57:37.298Z,10.27
2019-04-29T05:00:23.361Z,9.13
2019-04-29T05:02:51.919Z,10.13
2019-04-29T05:05:20.563Z,9.27
2019-04-29T05:07:49.140Z,10.43
2019-04-29T05:10:17.739Z,10.70
2019-04-29T05:12:46.297Z,13.40
2019-04-29T05:15:14.955Z,11.23
2019-04-29T05:17:43.605Z,11.37
2019-04-29T05:20:12.408Z,12.17
2019-04-29T05:22:42.637Z,12.67
2019-04-29T05:25:11.417Z,11.30
2019-04-29T05:27:40.304Z,11.63
2019-04-29T05:30:09.144Z,11.90
2019-04-29T05:32:37.705Z,11.70
2019-04-29T05:35:14.558Z,12.93
2019-04-29T05:37:44.769Z,12.97
2019-04-29T05:40:15.226Z,12.73
2019-04-29T05:42:43.865Z,14.17
2019-04-29T05:45:23.561Z,15.70
2019-04-29T05:47:59.967Z,18.00
2019-04-29T05:50:33.107Z,13.73
2019-04-29T05:53:03.317Z,16.17
2019-04-29T05:55:32.329Z,15.07
2019-04-29T05:58:12.747Z,15.03
2019-04-29T06:00:43.864Z,15.57
2019-04-29T06:03:12.515Z,21.33
2019-04-29T06:05:41.138Z,15.27
2019-04-29T06:08:09.762Z,18.27
2019-04-29T06:10:41.769Z,19.37
2019-04-29T06:13:09.194Z,31.47
2019-04-29T06:15:37.827Z,23.63
2019-04-29T06:18:06.460Z,16.57
2019-04-29T06:20:35.372Z,18.20
2019-04-29T06:23:04.122Z,16.63
2019-04-29T06:25:32.665Z,18.73
2019-04-29T06:28:01.167Z,19.07
2019-04-29T06:30:29.742Z,18.70
2019-04-29T06:32:58.385Z,18.73
2019-04-29T06:35:26.888Z,19.80
2019-04-29T06:37:55.457Z,20.97
2019-04-29T06:40:24.013Z,23.43
2019-04-29T06:42:53.379Z,21.37
2019-04-29T06:45:22.742Z,21.03
2019-04-29T06:47:51.341Z,23.43
2019-04-29T06:50:19.966Z,20.00
2019-04-29T06:52:48.593Z,18.80
2019-04-29T06:55:17.159Z,23.87
2019-04-29T06:57:45.716Z,21.73
2019-04-29T07:00:17.677Z,26.47
2019-04-29T07:02:45.530Z,21.87
2019-04-29T07:05:14.937Z,20.60
2019-04-29T07:07:43.763Z,23.23
2019-04-29T07:10:16.608Z,24.00
2019-04-29T07:12:47.294Z,22.60
2019-04-29T07:15:13.951Z,23.73
2019-04-29T07:17:43.041Z,20.20
2019-04-29T07:20:12.167Z,25.57
2019-04-29T07:22:40.995Z,24.30
2019-04-29T07:25:09.803Z,21.43
2019-04-29T07:27:43.079Z,21.17
2019-04-29T07:30:09.641Z,24.57
2019-04-29T07:32:41.996Z,24.63
2019-04-29T07:35:09.793Z,23.03
2019-04-29T07:37:39.046Z,22.40
2019-04-29T07:40:09.463Z,23.53
2019-04-29T07:42:38.296Z,24.37
2019-04-29T07:45:12.053Z,20.93
2019-04-29T07:47:55.469Z,21.33
2019-04-29T07:50:13.032Z,22.43
2019-04-29T07:52:45.732Z,24.37
2019-04-29T07:55:12.106Z,27.10
2019-04-29T07:57:40.653Z,23.03
2019-04-29T08:00:12.948Z,25.17
2019-04-29T08:02:40.166Z,23.27
2019-04-29T08:05:09.260Z,19.73
2019-04-29T08:07:39.268Z,19.53
2019-04-29T08:10:22.759Z,20.77
2019-04-29T08:12:39.046Z,21.87
2019-04-29T08:15:09.073Z,19.40
2019-04-29T08:17:38.372Z,20.73
2019-04-29T08:20:07.377Z,20.60
2019-04-29T08:22:36.277Z,19.27
2019-04-29T08:25:07.379Z,20.17
2019-04-29T08:27:40.775Z,17.83
2019-04-29T08:30:11.296Z,20.10
2019-04-29T08:32:38.109Z,16.73
2019-04-29T08:35:07.172Z,17.17
2019-04-29T08:37:35.705Z,16.07
2019-04-29T08:40:15.980Z,16.37
2019-04-29T08:42:46.556Z,15.47
2019-04-29T08:45:20.121Z,18.53
2019-04-29T08:47:53.135Z,15.00
2019-04-29T08:50:21.709Z,15.53
2019-04-29T08:52:50.280Z,18.40
2019-04-29T08:55:19.439Z,15.20
2019-04-29T08:57:48.191Z,13.17
2019-04-29T09:00:17.564Z,151.40
2019-04-29T09:02:47.143Z,16.53
2019-04-29T09:05:17.086Z,16.33
2019-04-29T09:07:45.622Z,20.27
2019-04-29T09:10:14.631Z,16.80
2019-04-29T09:12:43.652Z,14.50
2019-04-29T09:15:13.072Z,13.37
2019-04-29T09:17:41.694Z,18.67
2019-04-29T09:20:11.645Z,19.00
2019-04-29T09:22:41.920Z,20.40
2019-04-29T09:25:28.082Z,19.20
2019-04-29T09:28:07.124Z,20.87
2019-04-29T09:30:38.671Z,19.10
2019-04-29T09:33:08.863Z,13.33
2019-04-29T09:35:38.793Z,13.67
2019-04-29T09:38:06.722Z,14.27
2019-04-29T09:40:45.886Z,13.37
2019-04-29T09:43:33.021Z,11.83
2019-04-29T09:46:06.241Z,11.33
2019-04-29T09:48:34.902Z,11.87
2019-04-29T09:51:16.580Z,12.57
2019-04-29T09:53:34.308Z,11.13
2019-04-29T09:56:03.036Z,10.23
2019-04-29T09:58:31.582Z,9.43
2019-04-29T10:01:18.815Z,10.83
2019-04-29T10:03:52.904Z,11.93
2019-04-29T10:06:23.113Z,11.73
2019-04-29T10:08:51.640Z,12.00
2019-04-29T10:11:20.711Z,14.03
2019-04-29T10:13:49.277Z,11.47
2019-04-29T10:16:19.752Z,13.10
2019-04-29T10:18:52.410Z,12.70
2019-04-29T10:21:23.009Z,13.63
2019-04-29T10:23:51.332Z,14.17
2019-04-29T10:26:20.154Z,12.73
2019-04-29T10:28:50.385Z,14.27
2019-04-29T10:31:19.505Z,15.77
2019-04-29T10:33:50.134Z,15.20
2019-04-29T10:36:20.684Z,16.13
2019-04-29T10:38:49.733Z,13.43
2019-04-29T10:41:35.972Z,13.03
2019-04-29T10:44:04.845Z,14.37
2019-04-29T10:46:46.963Z,15.53
2019-04-29T10:49:25.973Z,15.77
2019-04-29T10:51:58.099Z,14.87
2019-04-29T10:54:26.192Z,18.43
2019-04-29T10:56:54.746Z,18.93
2019-04-29T10:59:35.356Z,14.70
2019-04-29T11:02:18.455Z,15.73
2019-04-29T11:04:48.820Z,20.07
2019-04-29T11:07:25.946Z,17.83
2019-04-29T11:09:57.320Z,18.87
2019-04-29T11:12:25.874Z,19.83
2019-04-29T11:14:54.460Z,21.30
2019-04-29T11:17:24.885Z,21.27
2019-04-29T11:19:53.676Z,23.62
2019-04-29T11:22:23.901Z,20.80
2019-04-29T11:24:57.058Z,23.77
2019-04-29T11:27:27.662Z,21.60
2019-04-29T11:29:58.508Z,24.93
2019-04-29T11:32:29.229Z,26.03
2019-04-29T11:35:06.857Z,19.97
2019-04-29T11:37:35.418Z,24.53
2019-04-29T11:40:06.249Z,27.07
2019-04-29T11:42:36.736Z,21.90
2019-04-29T11:45:08.377Z,27.43
2019-04-29T11:47:37.408Z,23.40
2019-04-29T11:50:12.004Z,24.53
2019-04-29T11:52:39.717Z,27.40
2019-04-29T11:55:09.192Z,31.67
2019-04-29T11:57:40.996Z,31.80
2019-04-29T12:00:23.756Z,25.87
2019-04-29T12:02:56.789Z,27.40
2019-04-29T12:05:27.170Z,29.37
2019-04-29T12:07:55.736Z,25.20
2019-04-29T12:10:24.370Z,30.90
2019-04-29T12:12:53.006Z,31.20
2019-04-29T12:15:23.237Z,32.40
2019-04-29T12:18:09.762Z,43.93
2019-04-29T12:20:40.053Z,35.30
2019-04-29T12:23:11.170Z,32.50
2019-04-29T12:25:38.911Z,40.80
2019-04-29T12:28:18.959Z,48.97
2019-04-29T12:30:42.449Z,54.50
2019-04-29T12:33:12.817Z,53.27
2019-04-29T12:35:51.691Z,49.97
2019-04-29T12:38:39.343Z,58.40
2019-04-29T12:40:59.072Z,48.60
2019-04-29T12:43:38.732Z,48.13
2019-04-29T12:46:10.393Z,48.33
2019-04-29T12:48:39.143Z,44.97
2019-04-29T12:51:07.780Z,53.93
2019-04-29T12:53:36.329Z,47.03
2019-04-29T12:56:07.129Z,55.73
2019-04-29T12:58:35.122Z,59.00
2019-04-29T13:01:17.660Z,56.73
2019-04-29T13:04:06.372Z,49.37
2019-04-29T13:06:52.960Z,52.70
2019-04-29T13:09:38.237Z,50.37
2019-04-29T13:12:18.977Z,51.30
2019-04-29T13:14:39.244Z,44.53
2019-04-29T13:17:15.328Z,43.27
2019-04-29T13:20:00.737Z,44.63
2019-04-29T13:22:18.811Z,41.07
2019-04-29T13:24:47.773Z,45.37
2019-04-29T13:27:20.548Z,44.77
2019-04-29T13:29:46.712Z,46.43
2019-04-29T13:32:15.355Z,45.87
2019-04-29T13:34:45.981Z,40.00
2019-04-29T13:37:18.835Z,37.17
2019-04-29T13:39:44.756Z,42.03
2019-04-29T13:42:15.760Z,42.03
2019-04-29T13:45:04.471Z,65.23
2019-04-29T13:47:15.627Z,38.93
2019-04-29T13:49:51.597Z,64.23
2019-04-29T13:52:20.145Z,41.57
2019-04-29T13:54:48.650Z,40.20
2019-04-29T13:57:17.252Z,38.83
2019-04-29T13:59:49.289Z,35.03
2019-04-29T14:02:36.858Z,40.33
2019-04-29T14:05:09.042Z,39.13
2019-04-29T14:07:39.345Z,37.00
2019-04-29T14:10:10.097Z,44.43
2019-04-29T14:12:48.238Z,37.97
2019-04-29T14:15:09.792Z,35.77
2019-04-29T14:17:38.596Z,33.70
2019-04-29T14:20:10.692Z,37.50
2019-04-29T14:22:38.187Z,37.07
2019-04-29T14:25:07.401Z,37.57
2019-04-29T14:27:36.039Z,35.40
2019-04-29T14:30:09.324Z,38.73
2019-04-29T14:32:42.100Z,29.00
2019-04-29T14:35:13.091Z,37.23
2019-04-29T14:37:54.450Z,38.27
2019-04-29T14:40:12.506Z,36.07
2019-04-29T14:42:57.791Z,33.93
2019-04-29T14:45:26.919Z,35.80
2019-04-29T14:48:13.424Z,32.87
2019-04-29T14:50:43.580Z,35.83
2019-04-29T14:53:12.127Z,33.30
2019-04-29T14:55:41.081Z,29.57
2019-04-29T14:58:09.658Z,34.97
2019-04-29T15:00:51.783Z,31.07
2019-04-29T15:03:22.079Z,29.00
2019-04-29T15:05:50.672Z,26.67
2019-04-29T15:08:19.637Z,31.57
2019-04-29T15:10:50.014Z,36.70
2019-04-29T15:13:21.671Z,37.83
2019-04-29T15:16:03.887Z,36.87
2019-04-29T15:18:45.901Z,38.10
2019-04-29T15:21:14.795Z,38.97
2019-04-29T15:23:43.472Z,33.23
2019-04-29T15:26:12.040Z,32.67
2019-04-29T15:28:52.667Z,27.03
2019-04-29T15:31:22.989Z,39.50
2019-04-29T15:33:51.694Z,32.30
2019-04-29T15:36:20.266Z,34.43
2019-04-29T15:39:08.298Z,27.27
2019-04-29T15:41:19.388Z,30.47
2019-04-29T15:43:48.357Z,33.15
2019-04-29T15:46:17.206Z,29.60
2019-04-29T15:48:45.754Z,32.10
2019-04-29T15:51:14.903Z,27.03
2019-04-29T15:53:43.796Z,29.67
2019-04-29T15:56:27.718Z,29.70
2019-04-29T15:58:42.816Z,31.53
2019-04-29T16:03:41.897Z,30.07
2019-04-29T16:06:21.254Z,35.20
2019-04-29T16:08:59.326Z,29.83
2019-04-29T16:11:46.088Z,24.80
2019-04-29T16:14:16.636Z,22.10
2019-04-29T16:16:45.630Z,21.03
2019-04-29T16:19:14.190Z,26.80
2019-04-29T16:21:43.097Z,24.57
2019-04-29T16:24:25.871Z,23.90
2019-04-29T16:26:41.941Z,25.43
2019-04-29T16:29:13.207Z,22.77
2019-04-29T16:31:40.786Z,23.97
2019-04-29T16:34:09.561Z,27.20
2019-04-29T16:36:38.124Z,27.10
2019-04-29T16:39:07.612Z,22.07
2019-04-29T16:41:37.753Z,23.13
2019-04-29T16:44:33.643Z,27.23
2019-04-29T16:46:38.883Z,22.60
2019-04-29T16:49:07.607Z,19.80
2019-04-29T16:51:36.289Z,26.10
2019-04-29T16:54:04.867Z,27.37
2019-04-29T16:56:33.833Z,29.67
2019-04-29T16:59:09.203Z,24.53
2019-04-29T17:01:33.022Z,22.43
2019-04-29T17:04:05.406Z,21.00
2019-04-29T17:06:35.953Z,22.93
2019-04-29T17:09:10.296Z,22.23
2019-04-29T17:11:40.674Z,18.57
2019-04-29T17:14:12.619Z,20.00
2019-04-29T17:16:39.840Z,17.73
2019-04-29T17:19:08.457Z,18.53
2019-04-29T17:21:37.035Z,20.47
2019-04-29T17:24:06.018Z,17.30
2019-04-29T17:26:36.598Z,18.35
2019-04-29T17:29:37.829Z,16.57
2019-04-29T17:31:57.459Z,18.53
2019-04-29T17:34:55.791Z,17.23
2019-04-29T17:35:16.667Z,32.90
2019-04-29T17:36:58.712Z,27.63
2019-04-29T17:39:27.769Z,19.53
2019-04-29T17:41:56.941Z,18.87
2019-04-29T17:44:27.149Z,17.63
2019-04-29T17:46:59.724Z,18.65
2019-04-29T17:49:30.797Z,14.40
2019-04-29T17:52:03.033Z,19.07
2019-04-29T17:54:32.349Z,18.87
2019-04-29T17:57:25.416Z,21.57
2019-04-29T17:59:43.452Z,21.30
2019-04-29T18:02:22.199Z,20.70
2019-04-29T18:04:55.977Z,16.23
2019-04-29T18:07:26.378Z,17.00
2019-04-29T18:10:05.638Z,18.23
2019-04-29T18:12:41.230Z,21.87
2019-04-29T18:15:06.125Z,21.23
2019-04-29T18:17:36.393Z,19.07
2019-04-29T18:20:30.843Z,17.57
2019-04-29T18:22:56.913Z,22.00
2019-04-29T18:25:39.282Z,19.93
2019-04-29T18:28:07.981Z,15.43
2019-04-29T18:30:38.462Z,18.17
2019-04-29T18:33:06.938Z,23.43
2019-04-29T18:35:35.858Z,20.60
2019-04-29T18:38:07.667Z,19.90
2019-04-29T18:40:41.713Z,20.60
2019-04-29T18:43:05.060Z,18.47
2019-04-29T18:45:35.019Z,16.07
2019-04-29T18:48:03.937Z,19.27
2019-04-29T18:50:34.287Z,18.70
2019-04-29T18:53:02.743Z,19.33
2019-04-29T18:55:31.392Z,26.97
2019-04-29T18:57:59.984Z,20.13
2019-04-29T19:00:28.719Z,22.40
2019-04-29T19:02:59.978Z,20.70
2019-04-29T19:05:32.286Z,21.87
2019-04-29T19:08:11.288Z,20.73
2019-04-29T19:10:34.761Z,21.27
2019-04-29T19:13:04.571Z,19.27
2019-04-29T19:15:30.314Z,18.77
2019-04-29T19:18:01.782Z,23.27
2019-04-29T19:20:29.179Z,20.30
2019-04-29T19:23:05.656Z,23.12
2019-04-29T19:25:28.110Z,17.63
2019-04-29T19:27:56.837Z,18.17
2019-04-29T19:30:29.109Z,19.30
2019-04-29T19:33:00.192Z,20.50
2019-04-29T19:35:29.488Z,18.83
2019-04-29T19:37:56.996Z,16.07
2019-04-29T19:40:30.572Z,16.80
2019-04-29T19:42:56.443Z,18.43
2019-04-29T19:45:24.988Z,15.30
2019-04-29T19:47:53.634Z,15.70
2019-04-29T19:50:22.277Z,15.73
2019-04-29T19:52:50.824Z,11.70
2019-04-29T19:55:19.335Z,14.20
2019-04-29T19:57:51.910Z,12.60
2019-04-29T20:00:23.504Z,12.67
2019-04-29T20:02:50.339Z,9.93
2019-04-29T20:05:23.890Z,9.70
2019-04-29T20:07:52.189Z,12.40
2019-04-29T20:10:22.128Z,8.07
2019-04-29T20:12:53.204Z,6.80
2019-04-29T20:15:21.881Z,7.83
2019-04-29T20:18:08.929Z,8.07
2019-04-29T20:21:07.584Z,11.40
2019-04-29T20:23:26.441Z,9.47
2019-04-29T20:26:05.573Z,11.63
2019-04-29T20:28:25.897Z,9.97
2019-04-29T20:31:08.036Z,8.77
2019-04-29T20:33:25.201Z,10.13
2019-04-29T20:35:55.810Z,11.80
2019-04-29T20:38:25.356Z,7.63
2019-04-29T20:40:55.423Z,5.50
2019-04-29T20:43:26.120Z,7.27
2019-04-29T20:45:58.127Z,9.73
2019-04-29T20:48:24.765Z,12.67
2019-04-29T20:50:54.718Z,12.23
2019-04-29T20:53:25.692Z,9.40
2019-04-29T20:55:55.330Z,9.30
2019-04-29T20:58:31.300Z,8.27
2019-04-29T21:00:58.150Z,5.90
2019-04-29T21:03:29.885Z,4.70
2019-04-29T21:06:02.551Z,5.67
2019-04-29T21:08:25.910Z,6.63
2019-04-29T21:10:56.280Z,4.33
2019-04-29T21:13:26.452Z,5.33
2019-04-29T21:15:59.799Z,5.50
2019-04-29T21:18:28.687Z,11.17
2019-04-29T21:20:59.685Z,4.10
2019-04-29T21:23:31.553Z,4.47
2019-04-29T21:26:00.471Z,9.47
2019-04-29T21:28:31.504Z,6.70
2019-04-29T21:30:58.353Z,4.10
2019-04-29T21:33:27.085Z,4.57
2019-04-29T21:36:00.046Z,5.03
2019-04-29T21:38:30.332Z,5.47
2019-04-29T21:41:06.536Z,4.30
2019-04-29T21:43:42.228Z,4.93
2019-04-29T21:46:10.809Z,4.97
2019-04-29T21:48:39.373Z,6.40
2019-04-29T21:51:11.202Z,6.72
2019-04-29T21:53:40.236Z,5.23
2019-04-29T21:56:09.418Z,8.43
2019-04-29T21:58:38.282Z,4.77
2019-04-29T22:01:07.956Z,4.73
2019-04-29T22:03:36.739Z,5.47
2019-04-29T22:06:05.408Z,6.37
2019-04-29T22:08:35.457Z,4.20
2019-04-29T22:11:05.263Z,5.00
2019-04-29T22:13:35.526Z,5.23
2019-04-29T22:16:04.937Z,4.07
2019-04-29T22:18:35.459Z,3.97
2019-04-29T22:21:06.575Z,4.83
2019-04-29T22:23:35.286Z,5.57
2019-04-29T22:26:05.039Z,4.73
2019-04-29T22:28:35.110Z,6.27
2019-04-29T22:31:05.474Z,6.10
2019-04-29T22:33:38.319Z,6.17
2019-04-29T22:36:05.430Z,5.73
2019-04-29T22:38:35.859Z,6.93
2019-04-29T22:41:06.181Z,4.87
2019-04-29T22:43:40.292Z,3.80
2019-04-29T22:46:09.379Z,7.43
2019-04-29T22:48:40.646Z,7.20
2019-04-29T22:51:10.119Z,6.83
2019-04-29T22:53:40.035Z,5.20
2019-04-29T22:56:09.010Z,5.70
2019-04-29T22:58:39.452Z,5.27
2019-04-29T23:01:08.606Z,8.43
2019-04-29T23:03:37.917Z,8.67
2019-04-29T23:06:08.515Z,8.53
2019-04-29T23:08:38.078Z,7.40
2019-04-29T23:11:06.921Z,5.03
2019-04-29T23:13:35.818Z,6.23
2019-04-29T23:16:05.768Z,5.27
2019-04-29T23:18:42.049Z,5.67
2019-04-29T23:21:22.446Z,7.70
2019-04-29T23:23:52.710Z,5.37
2019-04-29T23:26:21.281Z,7.23
2019-04-29T23:28:49.851Z,8.23
2019-04-29T23:31:22.611Z,6.03
2019-04-29T23:33:53.162Z,5.17
2019-04-29T23:36:19.126Z,4.77
2019-04-29T23:38:47.845Z,4.70
2019-04-29T23:41:16.350Z,5.13
2019-04-29T23:43:45.624Z,6.37
2019-04-29T23:46:16.125Z,5.50
2019-04-29T23:48:46.492Z,5.20
2019-04-29T23:51:15.420Z,4.70
2019-04-29T23:53:45.261Z,5.70
2019-04-29T23:56:15.361Z,6.73
2019-04-29T23:58:51.442Z,7.07
